Terminal Aerodrome Forecast
Issued by NWS

Home | Current Version | Previous Version | Text Only | Print | Product List | Glossary On
Versions: 1 2 3 4 5 6 7 8 9 10 11 12 13 14
000
FTUS43 KFGF 190500
TAFDVL
TAF
KDVL 190538Z 1906/2006 20015G21KT P6SM BKN130
     FM191000 22014KT P6SM BKN130
     FM191500 25015KT P6SM BKN250
     FM192100 31012KT P6SM SCT250
      AMD LTD TO CLD VIS AND WIND=

USA.gov is the U.S. government's official web portal to all federal, state and local government web resources and services.